createdAt,value
2018-08-18T00:00:50.090Z,54.7
2018-08-18T00:05:46.300Z,54.8
2018-08-18T00:10:42.414Z,54.8
2018-08-18T00:15:36.308Z,55.1
2018-08-18T00:20:32.507Z,55
2018-08-18T00:25:28.436Z,55.1
2018-08-18T00:30:24.696Z,55.1
2018-08-18T00:35:20.639Z,55.2
2018-08-18T00:40:17.498Z,55.3
2018-08-18T00:45:13.265Z,55.2
2018-08-18T00:50:13.510Z,55.2
2018-08-18T00:55:08.266Z,55.2
2018-08-18T01:00:04.296Z,55.3
2018-08-18T01:04:59.969Z,55.4
2018-08-18T01:09:55.797Z,55.5
2018-08-18T01:14:51.868Z,55.5
2018-08-18T01:19:51.368Z,55.5
2018-08-18T01:24:46.289Z,55.6
2018-08-18T01:29:42.481Z,55.7
2018-08-18T01:34:38.453Z,55.7
2018-08-18T01:39:34.448Z,55.7
2018-08-18T01:44:31.624Z,55.6
2018-08-18T01:49:27.898Z,55.6
2018-08-18T01:54:24.058Z,56
2018-08-18T01:59:19.895Z,56
2018-08-18T02:04:15.837Z,56
2018-08-18T02:09:12.033Z,56
2018-08-18T02:14:08.149Z,55.9
2018-08-18T02:19:04.175Z,56
2018-08-18T02:24:00.275Z,56.4
2018-08-18T02:28:56.219Z,56.9
2018-08-18T02:33:52.400Z,57
2018-08-18T02:38:48.271Z,57.2
2018-08-18T02:43:44.663Z,57.3
2018-08-18T02:48:40.543Z,57.3
2018-08-18T02:53:36.427Z,57.3
2018-08-18T02:58:32.053Z,57.3
2018-08-18T03:03:27.964Z,57.4
2018-08-18T03:08:23.536Z,57.5
2018-08-18T03:13:19.516Z,57.5
2018-08-18T03:18:15.210Z,57.6
2018-08-18T03:23:11.334Z,57.7
2018-08-18T03:28:07.233Z,57.3
2018-08-18T03:33:03.370Z,57.2
2018-08-18T03:37:59.160Z,57.4
2018-08-18T03:42:55.201Z,57.4
2018-08-18T03:47:51.448Z,57.3
2018-08-18T03:52:47.385Z,57.7
2018-08-18T03:57:43.488Z,57.6
2018-08-18T04:02:40.090Z,57.7
2018-08-18T04:07:36.128Z,57.1
2018-08-18T04:12:31.757Z,57.3
2018-08-18T04:17:27.269Z,57.5
2018-08-18T04:22:23.391Z,57.7
2018-08-18T04:27:19.213Z,57.9
2018-08-18T04:32:15.271Z,58.1
2018-08-18T04:37:11.426Z,58.1
2018-08-18T04:42:08.236Z,58.7
2018-08-18T04:47:04.143Z,58.1
2018-08-18T04:52:04.649Z,58.1
2018-08-18T04:57:02.315Z,57.8
2018-08-18T05:01:58.268Z,58
2018-08-18T05:06:54.087Z,58.2
2018-08-18T05:11:49.990Z,58
2018-08-18T05:16:46.427Z,58.3
2018-08-18T05:21:42.332Z,58.3
2018-08-18T05:26:38.019Z,58.4
2018-08-18T05:31:33.981Z,58.2
2018-08-18T05:36:30.153Z,58.3
2018-08-18T05:41:25.795Z,58.6
2018-08-18T05:46:21.835Z,58.7
2018-08-18T05:51:18.823Z,58.4
2018-08-18T05:56:19.282Z,58.4
2018-08-18T06:01:13.931Z,58.4
2018-08-18T06:06:10.167Z,58.4
2018-08-18T06:11:06.239Z,58.4
2018-08-18T06:16:02.391Z,58.4
2018-08-18T06:20:58.428Z,58.4
2018-08-18T06:25:54.501Z,58.3
2018-08-18T06:30:50.445Z,58.1
2018-08-18T06:35:47.255Z,57.9
2018-08-18T06:40:43.780Z,57.7
2018-08-18T06:45:39.758Z,57.8
2018-08-18T06:50:36.095Z,57.5
2018-08-18T06:55:32.008Z,57.5
2018-08-18T07:00:27.625Z,57.3
2018-08-18T07:05:23.718Z,57.3
2018-08-18T07:10:19.821Z,57.3
2018-08-18T07:15:19.490Z,57.1
2018-08-18T07:20:14.339Z,56.9
2018-08-18T07:25:10.507Z,56.6
2018-08-18T07:30:06.455Z,56
2018-08-18T07:35:02.523Z,55.8
2018-08-18T07:39:58.571Z,55.4
2018-08-18T07:44:54.454Z,54.9
2018-08-18T07:49:50.905Z,54.6
2018-08-18T07:54:46.971Z,53.8
2018-08-18T07:59:43.162Z,53.7
2018-08-18T08:04:39.352Z,53.7
2018-08-18T08:09:35.171Z,53.4
2018-08-18T08:14:31.355Z,52.7
2018-08-18T08:19:27.571Z,52
2018-08-18T08:24:23.799Z,52
2018-08-18T08:29:20.084Z,52
2018-08-18T08:34:16.222Z,51.1
2018-08-18T08:39:12.499Z,50.8
2018-08-18T08:44:08.362Z,49.9
2018-08-18T08:49:05.544Z,49.7
2018-08-18T08:54:01.813Z,49.6
2018-08-18T08:58:58.193Z,49.3
2018-08-18T09:03:54.717Z,48.5
2018-08-18T09:08:50.787Z,48.1
2018-08-18T09:13:46.920Z,47.9
2018-08-18T09:18:44.590Z,47.5
2018-08-18T09:23:40.471Z,47.1
2018-08-18T09:28:36.753Z,46.4
2018-08-18T09:33:33.307Z,46.3
2018-08-18T09:38:29.414Z,44.9
2018-08-18T09:43:25.692Z,44.4
2018-08-18T09:48:21.883Z,44.5
2018-08-18T09:53:18.305Z,43.7
2018-08-18T09:58:14.730Z,43.3
2018-08-18T10:03:11.409Z,42.4
2018-08-18T10:08:09.049Z,43
2018-08-18T10:13:05.874Z,42.2
2018-08-18T10:18:02.154Z,42.1
2018-08-18T10:23:05.720Z,41.7
2018-08-18T10:28:00.848Z,41.4
2018-08-18T10:32:57.393Z,40.7
2018-08-18T10:37:53.358Z,41.1
2018-08-18T10:42:49.708Z,40.5
2018-08-18T10:47:46.028Z,40.1
2018-08-18T10:52:42.101Z,39.7
2018-08-18T10:57:38.252Z,40.4
2018-08-18T11:02:34.052Z,40.5
2018-08-18T11:07:30.254Z,40.6
2018-08-18T11:12:26.972Z,40.8
2018-08-18T11:17:22.985Z,40.2
2018-08-18T11:22:19.271Z,40
2018-08-18T11:27:15.652Z,39.6
2018-08-18T11:32:11.853Z,39.1
2018-08-18T11:37:08.949Z,39.5
2018-08-18T11:42:04.739Z,38.9
2018-08-18T11:47:02.079Z,38.6
2018-08-18T11:51:59.607Z,38.2
2018-08-18T11:56:56.906Z,38
2018-08-18T12:01:52.867Z,38.2
2018-08-18T12:06:48.763Z,38.8
2018-08-18T12:11:44.970Z,38
2018-08-18T12:16:49.223Z,36.9
2018-08-18T12:21:43.492Z,35.9
2018-08-18T12:26:39.516Z,36.2
2018-08-18T12:31:35.506Z,36.1
2018-08-18T12:36:31.783Z,36.1
2018-08-18T12:41:27.770Z,36.2
2018-08-18T12:46:24.343Z,36.3
2018-08-18T12:51:20.554Z,35.8
2018-08-18T12:56:17.637Z,35.7
2018-08-18T13:01:13.718Z,35.8
2018-08-18T13:06:14.044Z,35.7
2018-08-18T13:11:09.523Z,35.3
2018-08-18T13:16:05.881Z,35.1
2018-08-18T13:21:02.220Z,35.1
2018-08-18T13:25:58.432Z,34.6
2018-08-18T13:30:54.759Z,34.6
2018-08-18T13:35:50.943Z,34.4
2018-08-18T13:40:47.351Z,34.6
2018-08-18T13:45:43.641Z,34.8
2018-08-18T13:50:39.666Z,35
2018-08-18T13:55:36.136Z,33.4
2018-08-18T14:00:32.995Z,33.1
2018-08-18T14:05:29.275Z,33
2018-08-18T14:10:25.324Z,33.5
2018-08-18T14:15:21.280Z,33.8
2018-08-18T14:20:17.654Z,34.3
2018-08-18T14:25:13.676Z,34.3
2018-08-18T14:30:10.551Z,34.6
2018-08-18T14:35:06.344Z,34.7
2018-08-18T14:40:02.425Z,35.1
2018-08-18T14:44:58.700Z,35.7
2018-08-18T14:49:54.800Z,36
2018-08-18T14:54:52.599Z,35.9
2018-08-18T14:59:48.507Z,36
2018-08-18T15:04:44.729Z,36.2
2018-08-18T15:09:40.649Z,36.4
2018-08-18T15:14:36.691Z,36.3
2018-08-18T15:19:32.958Z,36.2
2018-08-18T15:24:29.507Z,36.9
2018-08-18T15:29:25.991Z,37.2
2018-08-18T15:34:22.290Z,37.4
2018-08-18T15:39:18.335Z,37.7
2018-08-18T15:44:14.687Z,37.9
2018-08-18T15:49:11.004Z,38.1
2018-08-18T15:54:07.224Z,38.3
2018-08-18T15:59:03.172Z,38.4
2018-08-18T16:03:59.448Z,38.5
2018-08-18T16:08:55.393Z,38.5
2018-08-18T16:13:51.636Z,38.5
2018-08-18T16:18:47.939Z,38.7
2018-08-18T16:23:48.156Z,38.8
2018-08-18T16:28:42.806Z,39
2018-08-18T16:33:39.034Z,39
2018-08-18T16:38:36.653Z,39.2
2018-08-18T16:43:32.509Z,39.3
2018-08-18T16:48:28.412Z,39.6
2018-08-18T16:53:24.599Z,39.7
2018-08-18T16:58:20.403Z,39.9
2018-08-18T17:03:16.437Z,40
2018-08-18T17:08:12.501Z,40.3
2018-08-18T17:13:08.856Z,40.5
2018-08-18T17:18:05.017Z,40.8
2018-08-18T17:23:01.061Z,41
2018-08-18T17:27:57.364Z,41.2
2018-08-18T17:32:53.578Z,41.4
2018-08-18T17:37:50.166Z,41.7
2018-08-18T17:42:50.222Z,41.7
2018-08-18T17:47:45.292Z,42
2018-08-18T17:52:41.471Z,42.2
2018-08-18T17:57:37.427Z,42.3
2018-08-18T18:02:33.407Z,42.5
2018-08-18T18:07:29.643Z,42.6
2018-08-18T18:12:25.760Z,42.7
2018-08-18T18:17:21.778Z,42.7
2018-08-18T18:22:17.906Z,42.8
2018-08-18T18:27:14.141Z,43
2018-08-18T18:32:10.320Z,43.2
2018-08-18T18:37:06.578Z,43.4
2018-08-18T18:42:02.594Z,43.6
2018-08-18T18:46:59.338Z,43.8
2018-08-18T18:51:56.040Z,44
2018-08-18T18:56:53.224Z,44.2
2018-08-18T19:01:49.254Z,44.4
2018-08-18T19:06:45.795Z,44.6
2018-08-18T19:11:41.665Z,44.7
2018-08-18T19:16:38.791Z,44.8
2018-08-18T19:21:34.524Z,45.1
2018-08-18T19:26:30.818Z,45.3
2018-08-18T19:31:26.851Z,45.5
2018-08-18T19:36:22.980Z,45.6
2018-08-18T19:41:19.200Z,45.6
2018-08-18T19:46:15.732Z,45.7
2018-08-18T19:51:12.225Z,45.7
2018-08-18T19:56:08.141Z,45.8
2018-08-18T20:01:04.772Z,46
2018-08-18T20:06:00.794Z,46.1
2018-08-18T20:10:56.735Z,46.4
2018-08-18T20:15:52.753Z,46.5
2018-08-18T20:21:04.673Z,46.9
2018-08-18T20:25:57.124Z,47.1
2018-08-18T20:30:53.015Z,46.8
2018-08-18T20:35:50.661Z,47.1
2018-08-18T20:40:47.484Z,47.3
2018-08-18T20:45:47.018Z,47.3
2018-08-18T20:50:42.902Z,47.3
2018-08-18T20:55:39.047Z,47.2
2018-08-18T21:00:34.921Z,47.2
2018-08-18T21:05:36.546Z,47.6
2018-08-18T21:10:31.802Z,47.9
2018-08-18T21:15:28.121Z,48.1
2018-08-18T21:20:24.269Z,48
2018-08-18T21:25:20.381Z,48.1
2018-08-18T21:30:16.672Z,48.3
2018-08-18T21:35:12.838Z,48.4
2018-08-18T21:40:09.955Z,48.5
2018-08-18T21:45:05.876Z,48.6
2018-08-18T21:50:02.602Z,49
2018-08-18T21:54:58.454Z,49.1
2018-08-18T21:59:54.439Z,49.3
2018-08-18T22:04:54.856Z,49.4
2018-08-18T22:09:51.569Z,49.5
2018-08-18T22:14:47.463Z,49.7
2018-08-18T22:19:43.455Z,50.2
2018-08-18T22:24:39.512Z,50.1
2018-08-18T22:29:35.613Z,50.4
2018-08-18T22:34:32.446Z,50.6
2018-08-18T22:39:32.578Z,50.5
2018-08-18T22:44:27.675Z,50.4
2018-08-18T22:49:23.077Z,50.7
2018-08-18T22:54:19.184Z,50.9
2018-08-18T22:59:15.158Z,50.9
2018-08-18T23:04:15.649Z,51
2018-08-18T23:09:10.555Z,51.1
2018-08-18T23:14:07.471Z,51.2
2018-08-18T23:19:09.321Z,50.8
2018-08-18T23:24:06.510Z,51
2018-08-18T23:29:02.914Z,51.2
2018-08-18T23:33:58.756Z,51.3
2018-08-18T23:38:54.997Z,51.4
2018-08-18T23:43:51.248Z,51.5
2018-08-18T23:48:47.241Z,51.7
2018-08-18T23:53:43.498Z,51.8
2018-08-18T23:58:39.766Z,52
